sensor_id;sensor_type;location;lat;lon;timestamp;P1;durP1;ratioP1;P2;durP2;ratioP2
13114;SDS011;6623;52.120;8.660;2023-03-12T00:01:24;13.80;;;11.83;;
13114;SDS011;6623;52.120;8.660;2023-03-12T00:03:51;13.05;;;11.35;;
13114;SDS011;6623;52.120;8.660;2023-03-12T00:06:18;12.55;;;11.40;;
13114;SDS011;6623;52.120;8.660;2023-03-12T00:08:44;12.40;;;11.10;;
13114;SDS011;6623;52.120;8.660;2023-03-12T00:11:15;12.57;;;11.27;;
13114;SDS011;6623;52.120;8.660;2023-03-12T00:13:42;14.32;;;11.68;;
13114;SDS011;6623;52.120;8.660;2023-03-12T00:16:12;12.90;;;11.50;;
13114;SDS011;6623;52.120;8.660;2023-03-12T00:18:39;12.77;;;11.35;;
13114;SDS011;6623;52.120;8.660;2023-03-12T00:21:06;12.70;;;11.40;;
13114;SDS011;6623;52.120;8.660;2023-03-12T00:23:32;12.18;;;10.93;;
13114;SDS011;6623;52.120;8.660;2023-03-12T00:26:02;14.50;;;12.00;;
13114;SDS011;6623;52.120;8.660;2023-03-12T00:28:31;12.80;;;11.07;;
13114;SDS011;6623;52.120;8.660;2023-03-12T00:30:58;12.68;;;10.82;;
13114;SDS011;6623;52.120;8.660;2023-03-12T00:33:24;14.20;;;12.57;;
13114;SDS011;6623;52.120;8.660;2023-03-12T00:35:51;17.00;;;11.97;;
13114;SDS011;6623;52.120;8.660;2023-03-12T00:38:21;14.40;;;12.50;;
13114;SDS011;6623;52.120;8.660;2023-03-12T00:40:47;13.48;;;11.90;;
13114;SDS011;6623;52.120;8.660;2023-03-12T00:43:13;13.63;;;11.73;;
13114;SDS011;6623;52.120;8.660;2023-03-12T00:45:38;12.30;;;11.10;;
13114;SDS011;6623;52.120;8.660;2023-03-12T00:48:04;11.90;;;10.67;;
13114;SDS011;6623;52.120;8.660;2023-03-12T00:50:29;13.00;;;10.80;;
13114;SDS011;6623;52.120;8.660;2023-03-12T00:52:55;13.07;;;11.67;;
13114;SDS011;6623;52.120;8.660;2023-03-12T00:55:21;14.23;;;11.63;;
13114;SDS011;6623;52.120;8.660;2023-03-12T00:57:46;12.87;;;11.63;;
13114;SDS011;6623;52.120;8.660;2023-03-12T01:00:12;13.13;;;11.93;;
13114;SDS011;6623;52.120;8.660;2023-03-12T01:02:38;15.80;;;12.63;;
13114;SDS011;6623;52.120;8.660;2023-03-12T01:05:04;13.83;;;11.87;;
13114;SDS011;6623;52.120;8.660;2023-03-12T01:07:32;14.63;;;12.63;;
13114;SDS011;6623;52.120;8.660;2023-03-12T01:09:57;12.23;;;11.03;;
13114;SDS011;6623;52.120;8.660;2023-03-12T01:12:23;12.70;;;11.17;;
13114;SDS011;6623;52.120;8.660;2023-03-12T01:14:48;12.77;;;11.47;;
13114;SDS011;6623;52.120;8.660;2023-03-12T01:17:14;13.43;;;10.93;;
13114;SDS011;6623;52.120;8.660;2023-03-12T01:19:39;12.77;;;11.50;;
13114;SDS011;6623;52.120;8.660;2023-03-12T01:22:05;13.03;;;11.40;;
13114;SDS011;6623;52.120;8.660;2023-03-12T01:24:31;13.97;;;11.23;;
13114;SDS011;6623;52.120;8.660;2023-03-12T01:26:56;13.83;;;11.43;;
13114;SDS011;6623;52.120;8.660;2023-03-12T01:29:22;14.13;;;11.07;;
13114;SDS011;6623;52.120;8.660;2023-03-12T01:31:48;11.60;;;10.47;;
13114;SDS011;6623;52.120;8.660;2023-03-12T01:34:13;11.27;;;10.17;;
13114;SDS011;6623;52.120;8.660;2023-03-12T01:36:39;13.93;;;11.37;;
13114;SDS011;6623;52.120;8.660;2023-03-12T01:39:05;12.90;;;10.30;;
13114;SDS011;6623;52.120;8.660;2023-03-12T01:41:31;13.97;;;10.83;;
13114;SDS011;6623;52.120;8.660;2023-03-12T01:43:57;11.52;;;10.32;;
13114;SDS011;6623;52.120;8.660;2023-03-12T01:51:52;11.10;;;10.07;;
13114;SDS011;6623;52.120;8.660;2023-03-12T01:54:31;13.25;;;10.20;;
13114;SDS011;6623;52.120;8.660;2023-03-12T01:57:01;12.63;;;11.15;;
13114;SDS011;6623;52.120;8.660;2023-03-12T01:59:37;13.10;;;10.38;;
13114;SDS011;6623;52.120;8.660;2023-03-12T02:02:09;11.57;;;10.40;;
13114;SDS011;6623;52.120;8.660;2023-03-12T02:04:36;11.88;;;10.45;;
13114;SDS011;6623;52.120;8.660;2023-03-12T02:07:05;12.70;;;10.07;;
13114;SDS011;6623;52.120;8.660;2023-03-12T02:09:33;11.68;;;10.48;;
13114;SDS011;6623;52.120;8.660;2023-03-12T02:12:02;13.30;;;10.80;;
13114;SDS011;6623;52.120;8.660;2023-03-12T02:14:28;13.43;;;10.40;;
13114;SDS011;6623;52.120;8.660;2023-03-12T02:16:57;14.10;;;10.82;;
13114;SDS011;6623;52.120;8.660;2023-03-12T02:19:29;12.73;;;10.90;;
13114;SDS011;6623;52.120;8.660;2023-03-12T02:22:20;11.88;;;10.65;;
13114;SDS011;6623;52.120;8.660;2023-03-12T02:24:54;14.38;;;10.48;;
13114;SDS011;6623;52.120;8.660;2023-03-12T02:27:31;11.82;;;10.63;;
13114;SDS011;6623;52.120;8.660;2023-03-12T02:30:00;12.40;;;11.13;;
13114;SDS011;6623;52.120;8.660;2023-03-12T02:32:29;14.00;;;10.50;;
13114;SDS011;6623;52.120;8.660;2023-03-12T02:35:00;12.25;;;11.05;;
13114;SDS011;6623;52.120;8.660;2023-03-12T02:37:26;11.30;;;10.20;;
13114;SDS011;6623;52.120;8.660;2023-03-12T02:39:54;11.27;;;9.43;;
13114;SDS011;6623;52.120;8.660;2023-03-12T02:42:27;11.23;;;10.10;;
13114;SDS011;6623;52.120;8.660;2023-03-12T02:44:53;11.80;;;9.10;;
13114;SDS011;6623;52.120;8.660;2023-03-12T02:47:18;13.03;;;10.23;;
13114;SDS011;6623;52.120;8.660;2023-03-12T02:49:44;10.77;;;9.70;;
13114;SDS011;6623;52.120;8.660;2023-03-12T02:52:10;11.35;;;10.02;;
13114;SDS011;6623;52.120;8.660;2023-03-12T02:54:36;10.07;;;9.07;;
13114;SDS011;6623;52.120;8.660;2023-03-12T02:57:01;9.57;;;8.67;;
13114;SDS011;6623;52.120;8.660;2023-03-12T02:59:27;12.60;;;9.13;;
13114;SDS011;6623;52.120;8.660;2023-03-12T03:01:57;10.93;;;9.80;;
13114;SDS011;6623;52.120;8.660;2023-03-12T03:04:23;10.55;;;9.55;;
13114;SDS011;6623;52.120;8.660;2023-03-12T03:06:50;11.45;;;9.82;;
13114;SDS011;6623;52.120;8.660;2023-03-12T03:09:15;10.93;;;9.73;;
13114;SDS011;6623;52.120;8.660;2023-03-12T03:11:41;10.67;;;9.67;;
13114;SDS011;6623;52.120;8.660;2023-03-12T03:14:07;10.80;;;9.70;;
13114;SDS011;6623;52.120;8.660;2023-03-12T03:16:34;15.63;;;10.35;;
13114;SDS011;6623;52.120;8.660;2023-03-12T03:18:59;11.50;;;10.30;;
13114;SDS011;6623;52.120;8.660;2023-03-12T03:21:25;12.13;;;10.17;;
13114;SDS011;6623;52.120;8.660;2023-03-12T03:23:50;12.30;;;9.97;;
13114;SDS011;6623;52.120;8.660;2023-03-12T03:26:20;10.40;;;9.33;;
13114;SDS011;6623;52.120;8.660;2023-03-12T03:28:46;9.90;;;9.00;;
13114;SDS011;6623;52.120;8.660;2023-03-12T03:31:12;10.73;;;9.50;;
13114;SDS011;6623;52.120;8.660;2023-03-12T03:33:38;10.07;;;9.07;;
13114;SDS011;6623;52.120;8.660;2023-03-12T03:36:04;10.75;;;9.40;;
13114;SDS011;6623;52.120;8.660;2023-03-12T03:38:31;11.00;;;8.50;;
13114;SDS011;6623;52.120;8.660;2023-03-12T03:40:58;9.18;;;8.25;;
13114;SDS011;6623;52.120;8.660;2023-03-12T03:43:24;10.20;;;8.73;;
13114;SDS011;6623;52.120;8.660;2023-03-12T03:45:57;9.37;;;8.03;;
13114;SDS011;6623;52.120;8.660;2023-03-12T03:48:27;8.70;;;7.75;;
13114;SDS011;6623;52.120;8.660;2023-03-12T03:50:52;8.23;;;7.53;;
13114;SDS011;6623;52.120;8.660;2023-03-12T03:53:18;11.30;;;8.33;;
13114;SDS011;6623;52.120;8.660;2023-03-12T03:55:44;9.57;;;7.72;;
13114;SDS011;6623;52.120;8.660;2023-03-12T03:58:10;8.90;;;7.27;;
13114;SDS011;6623;52.120;8.660;2023-03-12T04:00:36;8.38;;;7.55;;
13114;SDS011;6623;52.120;8.660;2023-03-12T04:03:02;8.93;;;8.07;;
13114;SDS011;6623;52.120;8.660;2023-03-12T04:05:27;8.10;;;7.30;;
13114;SDS011;6623;52.120;8.660;2023-03-12T04:07:53;9.17;;;8.03;;
13114;SDS011;6623;52.120;8.660;2023-03-12T04:10:20;8.60;;;7.70;;
13114;SDS011;6623;52.120;8.660;2023-03-12T04:12:46;10.05;;;7.88;;
13114;SDS011;6623;52.120;8.660;2023-03-12T04:15:11;8.97;;;7.93;;
13114;SDS011;6623;52.120;8.660;2023-03-12T04:17:37;11.87;;;8.20;;
13114;SDS011;6623;52.120;8.660;2023-03-12T04:20:03;8.87;;;7.90;;
13114;SDS011;6623;52.120;8.660;2023-03-12T04:22:34;10.73;;;8.07;;
13114;SDS011;6623;52.120;8.660;2023-03-12T04:25:00;9.60;;;8.70;;
13114;SDS011;6623;52.120;8.660;2023-03-12T04:27:25;11.57;;;8.17;;
13114;SDS011;6623;52.120;8.660;2023-03-12T04:29:51;10.90;;;7.77;;
13114;SDS011;6623;52.120;8.660;2023-03-12T04:32:17;8.40;;;7.57;;
13114;SDS011;6623;52.120;8.660;2023-03-12T04:34:42;13.90;;;8.80;;
13114;SDS011;6623;52.120;8.660;2023-03-12T04:37:08;10.83;;;8.70;;
13114;SDS011;6623;52.120;8.660;2023-03-12T04:39:37;9.90;;;8.50;;
13114;SDS011;6623;52.120;8.660;2023-03-12T04:42:03;9.60;;;8.68;;
13114;SDS011;6623;52.120;8.660;2023-03-12T04:44:29;8.23;;;7.53;;
13114;SDS011;6623;52.120;8.660;2023-03-12T04:46:55;9.03;;;8.13;;
13114;SDS011;6623;52.120;8.660;2023-03-12T04:49:21;8.20;;;7.30;;
13114;SDS011;6623;52.120;8.660;2023-03-12T04:51:46;8.00;;;7.20;;
13114;SDS011;6623;52.120;8.660;2023-03-12T04:54:12;8.47;;;7.57;;
13114;SDS011;6623;52.120;8.660;2023-03-12T04:56:37;8.57;;;7.07;;
13114;SDS011;6623;52.120;8.660;2023-03-12T04:59:03;7.53;;;6.77;;
13114;SDS011;6623;52.120;8.660;2023-03-12T05:01:30;10.63;;;6.80;;
13114;SDS011;6623;52.120;8.660;2023-03-12T05:03:57;7.78;;;6.78;;
13114;SDS011;6623;52.120;8.660;2023-03-12T05:06:23;7.40;;;6.70;;
13114;SDS011;6623;52.120;8.660;2023-03-12T05:08:49;7.73;;;7.03;;
13114;SDS011;6623;52.120;8.660;2023-03-12T05:11:16;7.13;;;6.07;;
13114;SDS011;6623;52.120;8.660;2023-03-12T05:13:41;7.83;;;7.03;;
13114;SDS011;6623;52.120;8.660;2023-03-12T05:16:07;8.73;;;7.83;;
13114;SDS011;6623;52.120;8.660;2023-03-12T05:18:33;8.33;;;7.60;;
13114;SDS011;6623;52.120;8.660;2023-03-12T05:21:03;7.93;;;7.13;;
13114;SDS011;6623;52.120;8.660;2023-03-12T05:23:29;9.37;;;6.93;;
13114;SDS011;6623;52.120;8.660;2023-03-12T05:25:55;8.33;;;6.77;;
13114;SDS011;6623;52.120;8.660;2023-03-12T05:28:30;7.75;;;6.90;;
13114;SDS011;6623;52.120;8.660;2023-03-12T05:30:57;7.50;;;6.40;;
13114;SDS011;6623;52.120;8.660;2023-03-12T05:33:25;7.27;;;6.40;;
13114;SDS011;6623;52.120;8.660;2023-03-12T05:35:51;8.57;;;7.17;;
13114;SDS011;6623;52.120;8.660;2023-03-12T05:38:17;7.17;;;6.57;;
13114;SDS011;6623;52.120;8.660;2023-03-12T05:40:42;8.60;;;6.57;;
13114;SDS011;6623;52.120;8.660;2023-03-12T05:43:16;9.53;;;6.70;;
13114;SDS011;6623;52.120;8.660;2023-03-12T05:45:41;7.47;;;6.77;;
13114;SDS011;6623;52.120;8.660;2023-03-12T05:48:07;8.53;;;6.50;;
13114;SDS011;6623;52.120;8.660;2023-03-12T05:50:32;7.63;;;6.93;;
13114;SDS011;6623;52.120;8.660;2023-03-12T05:52:58;7.63;;;6.93;;
13114;SDS011;6623;52.120;8.660;2023-03-12T05:55:23;9.57;;;7.30;;
13114;SDS011;6623;52.120;8.660;2023-03-12T05:57:49;7.87;;;7.07;;
13114;SDS011;6623;52.120;8.660;2023-03-12T06:00:15;8.73;;;7.70;;
13114;SDS011;6623;52.120;8.660;2023-03-12T06:02:41;12.17;;;7.17;;
13114;SDS011;6623;52.120;8.660;2023-03-12T06:05:08;9.27;;;8.30;;
13114;SDS011;6623;52.120;8.660;2023-03-12T06:07:35;9.00;;;7.80;;
13114;SDS011;6623;52.120;8.660;2023-03-12T06:10:00;9.27;;;8.00;;
13114;SDS011;6623;52.120;8.660;2023-03-12T06:12:26;9.27;;;8.27;;
13114;SDS011;6623;52.120;8.660;2023-03-12T06:14:51;7.90;;;7.07;;
13114;SDS011;6623;52.120;8.660;2023-03-12T06:17:23;9.83;;;7.93;;
13114;SDS011;6623;52.120;8.660;2023-03-12T06:19:52;8.93;;;8.10;;
13114;SDS011;6623;52.120;8.660;2023-03-12T06:22:17;9.73;;;8.73;;
13114;SDS011;6623;52.120;8.660;2023-03-12T06:24:44;9.13;;;8.40;;
13114;SDS011;6623;52.120;8.660;2023-03-12T06:27:11;8.60;;;7.67;;
13114;SDS011;6623;52.120;8.660;2023-03-12T06:29:37;8.70;;;7.30;;
13114;SDS011;6623;52.120;8.660;2023-03-12T06:32:04;9.07;;;8.13;;
13114;SDS011;6623;52.120;8.660;2023-03-12T06:34:29;8.87;;;8.07;;
13114;SDS011;6623;52.120;8.660;2023-03-12T06:36:55;9.77;;;8.87;;
13114;SDS011;6623;52.120;8.660;2023-03-12T06:39:20;9.07;;;8.03;;
13114;SDS011;6623;52.120;8.660;2023-03-12T06:41:46;12.93;;;7.40;;
13114;SDS011;6623;52.120;8.660;2023-03-12T06:44:12;7.70;;;7.00;;
13114;SDS011;6623;52.120;8.660;2023-03-12T06:46:37;7.60;;;6.90;;
13114;SDS011;6623;52.120;8.660;2023-03-12T06:49:03;7.77;;;6.93;;
13114;SDS011;6623;52.120;8.660;2023-03-12T06:51:28;8.10;;;7.30;;
13114;SDS011;6623;52.120;8.660;2023-03-12T06:53:54;7.87;;;6.83;;
13114;SDS011;6623;52.120;8.660;2023-03-12T06:56:19;6.67;;;6.07;;
13114;SDS011;6623;52.120;8.660;2023-03-12T06:58:45;7.40;;;6.03;;
13114;SDS011;6623;52.120;8.660;2023-03-12T07:01:10;6.77;;;5.77;;
13114;SDS011;6623;52.120;8.660;2023-03-12T07:03:36;7.20;;;5.60;;
13114;SDS011;6623;52.120;8.660;2023-03-12T07:06:02;7.67;;;6.10;;
13114;SDS011;6623;52.120;8.660;2023-03-12T07:08:28;7.53;;;5.70;;
13114;SDS011;6623;52.120;8.660;2023-03-12T07:10:55;6.63;;;5.43;;
13114;SDS011;6623;52.120;8.660;2023-03-12T07:13:21;6.53;;;5.40;;
13114;SDS011;6623;52.120;8.660;2023-03-12T07:15:47;8.87;;;5.37;;
13114;SDS011;6623;52.120;8.660;2023-03-12T07:18:13;5.60;;;5.00;;
13114;SDS011;6623;52.120;8.660;2023-03-12T07:20:40;6.87;;;5.47;;
13114;SDS011;6623;52.120;8.660;2023-03-12T07:23:07;5.30;;;4.80;;
13114;SDS011;6623;52.120;8.660;2023-03-12T07:25:36;6.97;;;5.30;;
13114;SDS011;6623;52.120;8.660;2023-03-12T07:28:04;5.43;;;4.63;;
13114;SDS011;6623;52.120;8.660;2023-03-12T07:30:31;5.50;;;4.97;;
13114;SDS011;6623;52.120;8.660;2023-03-12T07:33:04;5.53;;;4.90;;
13114;SDS011;6623;52.120;8.660;2023-03-12T07:35:31;5.00;;;4.53;;
13114;SDS011;6623;52.120;8.660;2023-03-12T07:37:56;6.50;;;5.00;;
13114;SDS011;6623;52.120;8.660;2023-03-12T07:40:22;5.50;;;5.00;;
13114;SDS011;6623;52.120;8.660;2023-03-12T07:42:51;5.10;;;4.60;;
13114;SDS011;6623;52.120;8.660;2023-03-12T07:45:18;6.13;;;4.97;;
13114;SDS011;6623;52.120;8.660;2023-03-12T07:47:44;8.27;;;4.90;;
13114;SDS011;6623;52.120;8.660;2023-03-12T07:50:10;5.43;;;4.70;;
13114;SDS011;6623;52.120;8.660;2023-03-12T07:52:36;6.77;;;4.43;;
13114;SDS011;6623;52.120;8.660;2023-03-12T07:55:02;5.27;;;4.47;;
13114;SDS011;6623;52.120;8.660;2023-03-12T07:57:27;5.80;;;4.43;;
13114;SDS011;6623;52.120;8.660;2023-03-12T07:59:53;7.00;;;4.90;;
13114;SDS011;6623;52.120;8.660;2023-03-12T08:02:18;5.17;;;4.23;;
13114;SDS011;6623;52.120;8.660;2023-03-12T08:04:45;7.53;;;4.57;;
13114;SDS011;6623;52.120;8.660;2023-03-12T08:07:10;5.50;;;4.27;;
13114;SDS011;6623;52.120;8.660;2023-03-12T08:09:37;6.13;;;4.80;;
13114;SDS011;6623;52.120;8.660;2023-03-12T08:12:03;5.57;;;4.30;;
13114;SDS011;6623;52.120;8.660;2023-03-12T08:14:29;6.27;;;4.20;;
13114;SDS011;6623;52.120;8.660;2023-03-12T08:16:55;5.67;;;3.70;;
13114;SDS011;6623;52.120;8.660;2023-03-12T08:19:25;7.40;;;3.80;;
13114;SDS011;6623;52.120;8.660;2023-03-12T08:21:51;6.23;;;3.70;;
13114;SDS011;6623;52.120;8.660;2023-03-12T08:24:18;7.33;;;3.93;;
13114;SDS011;6623;52.120;8.660;2023-03-12T08:26:45;5.70;;;4.00;;
13114;SDS011;6623;52.120;8.660;2023-03-12T08:29:11;4.93;;;3.60;;
13114;SDS011;6623;52.120;8.660;2023-03-12T08:31:37;5.53;;;3.10;;
13114;SDS011;6623;52.120;8.660;2023-03-12T08:34:03;4.83;;;2.90;;
13114;SDS011;6623;52.120;8.660;2023-03-12T08:36:28;5.40;;;3.30;;
13114;SDS011;6623;52.120;8.660;2023-03-12T08:38:54;6.93;;;3.53;;
13114;SDS011;6623;52.120;8.660;2023-03-12T08:41:20;7.40;;;3.60;;
13114;SDS011;6623;52.120;8.660;2023-03-12T08:43:45;6.23;;;3.20;;
13114;SDS011;6623;52.120;8.660;2023-03-12T08:46:11;6.07;;;3.50;;
13114;SDS011;6623;52.120;8.660;2023-03-12T08:48:37;6.97;;;2.83;;
13114;SDS011;6623;52.120;8.660;2023-03-12T08:51:03;6.07;;;3.37;;
13114;SDS011;6623;52.120;8.660;2023-03-12T08:53:31;6.03;;;3.10;;
13114;SDS011;6623;52.120;8.660;2023-03-12T08:56:01;6.73;;;3.73;;
13114;SDS011;6623;52.120;8.660;2023-03-12T08:58:27;5.10;;;3.67;;
13114;SDS011;6623;52.120;8.660;2023-03-12T09:00:54;7.37;;;3.13;;
13114;SDS011;6623;52.120;8.660;2023-03-12T09:03:20;5.00;;;3.07;;
13114;SDS011;6623;52.120;8.660;2023-03-12T09:05:46;4.97;;;3.57;;
13114;SDS011;6623;52.120;8.660;2023-03-12T09:08:13;3.50;;;2.70;;
13114;SDS011;6623;52.120;8.660;2023-03-12T09:10:39;7.07;;;3.37;;
13114;SDS011;6623;52.120;8.660;2023-03-12T09:13:05;5.93;;;3.50;;
13114;SDS011;6623;52.120;8.660;2023-03-12T09:15:31;4.70;;;2.90;;
13114;SDS011;6623;52.120;8.660;2023-03-12T09:17:57;8.40;;;3.43;;
13114;SDS011;6623;52.120;8.660;2023-03-12T09:20:23;4.80;;;2.90;;
13114;SDS011;6623;52.120;8.660;2023-03-12T09:22:49;4.77;;;2.97;;
13114;SDS011;6623;52.120;8.660;2023-03-12T09:25:15;7.17;;;3.10;;
13114;SDS011;6623;52.120;8.660;2023-03-12T09:27:42;6.97;;;3.33;;
13114;SDS011;6623;52.120;8.660;2023-03-12T09:30:16;6.73;;;3.00;;
13114;SDS011;6623;52.120;8.660;2023-03-12T09:32:44;6.60;;;3.33;;
13114;SDS011;6623;52.120;8.660;2023-03-12T09:35:10;9.17;;;3.53;;
13114;SDS011;6623;52.120;8.660;2023-03-12T09:37:58;3.43;;;3.00;;
13114;SDS011;6623;52.120;8.660;2023-03-12T09:40:26;7.70;;;3.20;;
13114;SDS011;6623;52.120;8.660;2023-03-12T09:43:05;6.20;;;3.77;;
13114;SDS011;6623;52.120;8.660;2023-03-12T09:45:40;6.50;;;3.67;;
13114;SDS011;6623;52.120;8.660;2023-03-12T09:48:12;5.23;;;3.53;;
13114;SDS011;6623;52.120;8.660;2023-03-12T09:50:42;6.03;;;3.50;;
13114;SDS011;6623;52.120;8.660;2023-03-12T09:56:05;4.77;;;3.83;;
13114;SDS011;6623;52.120;8.660;2023-03-12T09:58:38;6.83;;;4.23;;
13114;SDS011;6623;52.120;8.660;2023-03-12T10:06:35;5.67;;;4.30;;
13114;SDS011;6623;52.120;8.660;2023-03-12T10:14:37;5.43;;;3.03;;
13114;SDS011;6623;52.120;8.660;2023-03-12T10:19:58;5.90;;;3.13;;
13114;SDS011;6623;52.120;8.660;2023-03-12T10:22:59;5.53;;;3.07;;
13114;SDS011;6623;52.120;8.660;2023-03-12T10:25:40;6.33;;;3.40;;
13114;SDS011;6623;52.120;8.660;2023-03-12T10:28:18;6.13;;;3.40;;
13114;SDS011;6623;52.120;8.660;2023-03-12T10:31:05;5.40;;;3.13;;
13114;SDS011;6623;52.120;8.660;2023-03-12T10:33:46;4.53;;;3.20;;
13114;SDS011;6623;52.120;8.660;2023-03-12T10:36:16;4.90;;;3.23;;
13114;SDS011;6623;52.120;8.660;2023-03-12T10:38:45;7.70;;;3.73;;
13114;SDS011;6623;52.120;8.660;2023-03-12T10:41:20;7.33;;;3.77;;
13114;SDS011;6623;52.120;8.660;2023-03-12T10:43:50;7.87;;;4.53;;
13114;SDS011;6623;52.120;8.660;2023-03-12T10:54:28;7.03;;;5.13;;
13114;SDS011;6623;52.120;8.660;2023-03-12T10:56:57;7.17;;;5.80;;
13114;SDS011;6623;52.120;8.660;2023-03-12T10:59:27;7.97;;;6.47;;
13114;SDS011;6623;52.120;8.660;2023-03-12T11:01:54;8.87;;;6.47;;
13114;SDS011;6623;52.120;8.660;2023-03-12T11:04:22;8.20;;;6.53;;
13114;SDS011;6623;52.120;8.660;2023-03-12T11:12:36;10.00;;;8.70;;
13114;SDS011;6623;52.120;8.660;2023-03-12T11:15:17;12.97;;;9.27;;
13114;SDS011;6623;52.120;8.660;2023-03-12T11:17:50;10.37;;;9.13;;
13114;SDS011;6623;52.120;8.660;2023-03-12T11:20:28;13.80;;;9.93;;
13114;SDS011;6623;52.120;8.660;2023-03-12T11:22:54;11.17;;;9.50;;
13114;SDS011;6623;52.120;8.660;2023-03-12T11:25:22;12.40;;;10.63;;
13114;SDS011;6623;52.120;8.660;2023-03-12T11:27:52;12.77;;;9.63;;
13114;SDS011;6623;52.120;8.660;2023-03-12T11:30:21;12.00;;;10.80;;
13114;SDS011;6623;52.120;8.660;2023-03-12T11:32:51;14.07;;;10.73;;
13114;SDS011;6623;52.120;8.660;2023-03-12T11:35:20;11.03;;;10.10;;
13114;SDS011;6623;52.120;8.660;2023-03-12T11:38:00;14.17;;;12.47;;
13114;SDS011;6623;52.120;8.660;2023-03-12T11:44:10;17.90;;;12.43;;
13114;SDS011;6623;52.120;8.660;2023-03-12T11:47:04;16.10;;;13.03;;
13114;SDS011;6623;52.120;8.660;2023-03-12T11:49:39;16.87;;;12.90;;
13114;SDS011;6623;52.120;8.660;2023-03-12T11:58:42;13.60;;;12.30;;
13114;SDS011;6623;52.120;8.660;2023-03-12T12:04:33;14.53;;;11.37;;
13114;SDS011;6623;52.120;8.660;2023-03-12T12:07:35;12.97;;;10.77;;
13114;SDS011;6623;52.120;8.660;2023-03-12T12:18:31;10.60;;;9.63;;
13114;SDS011;6623;52.120;8.660;2023-03-12T12:27:19;11.13;;;10.10;;
13114;SDS011;6623;52.120;8.660;2023-03-12T12:30:06;13.37;;;11.23;;
13114;SDS011;6623;52.120;8.660;2023-03-12T12:32:50;11.90;;;9.80;;
13114;SDS011;6623;52.120;8.660;2023-03-12T12:35:39;11.03;;;10.03;;
13114;SDS011;6623;52.120;8.660;2023-03-12T12:40:55;10.63;;;9.73;;
13114;SDS011;6623;52.120;8.660;2023-03-12T12:45:59;11.37;;;10.37;;
13114;SDS011;6623;52.120;8.660;2023-03-12T12:48:35;10.70;;;9.73;;
13114;SDS011;6623;52.120;8.660;2023-03-12T12:51:04;11.17;;;10.17;;
13114;SDS011;6623;52.120;8.660;2023-03-12T12:59:25;12.47;;;11.33;;
13114;SDS011;6623;52.120;8.660;2023-03-12T13:01:58;12.30;;;11.20;;
13114;SDS011;6623;52.120;8.660;2023-03-12T13:04:36;11.93;;;10.83;;
13114;SDS011;6623;52.120;8.660;2023-03-12T13:07:27;13.50;;;11.70;;
13114;SDS011;6623;52.120;8.660;2023-03-12T13:09:49;13.43;;;12.03;;
13114;SDS011;6623;52.120;8.660;2023-03-12T13:12:29;13.13;;;11.93;;
13114;SDS011;6623;52.120;8.660;2023-03-12T13:14:57;12.53;;;11.33;;
13114;SDS011;6623;52.120;8.660;2023-03-12T13:17:28;12.83;;;11.70;;
13114;SDS011;6623;52.120;8.660;2023-03-12T13:22:57;14.03;;;12.63;;
13114;SDS011;6623;52.120;8.660;2023-03-12T13:25:47;15.07;;;13.57;;
13114;SDS011;6623;52.120;8.660;2023-03-12T13:29:18;14.83;;;13.33;;
13114;SDS011;6623;52.120;8.660;2023-03-12T13:33:56;16.30;;;14.70;;
13114;SDS011;6623;52.120;8.660;2023-03-12T13:36:24;16.30;;;14.87;;
13114;SDS011;6623;52.120;8.660;2023-03-12T13:38:56;17.50;;;15.80;;
13114;SDS011;6623;52.120;8.660;2023-03-12T13:54:59;18.90;;;17.13;;
13114;SDS011;6623;52.120;8.660;2023-03-12T13:57:30;17.80;;;16.10;;
13114;SDS011;6623;52.120;8.660;2023-03-12T14:05:30;16.87;;;15.37;;
13114;SDS011;6623;52.120;8.660;2023-03-12T14:08:10;18.27;;;16.53;;
13114;SDS011;6623;52.120;8.660;2023-03-12T14:10:43;19.33;;;17.43;;
13114;SDS011;6623;52.120;8.660;2023-03-12T14:13:23;20.73;;;18.83;;
13114;SDS011;6623;52.120;8.660;2023-03-12T14:18:44;24.37;;;21.97;;
13114;SDS011;6623;52.120;8.660;2023-03-12T14:21:14;23.80;;;21.50;;
13114;SDS011;6623;52.120;8.660;2023-03-12T14:23:55;24.77;;;22.17;;
13114;SDS011;6623;52.120;8.660;2023-03-12T14:26:22;25.60;;;22.87;;
13114;SDS011;6623;52.120;8.660;2023-03-12T14:28:54;26.50;;;23.73;;
13114;SDS011;6623;52.120;8.660;2023-03-12T14:31:24;26.73;;;23.97;;
13114;SDS011;6623;52.120;8.660;2023-03-12T14:36:19;29.53;;;26.43;;
13114;SDS011;6623;52.120;8.660;2023-03-12T14:38:48;27.80;;;24.73;;
13114;SDS011;6623;52.120;8.660;2023-03-12T14:43:53;32.67;;;28.33;;
13114;SDS011;6623;52.120;8.660;2023-03-12T14:46:29;34.00;;;27.93;;
13114;SDS011;6623;52.120;8.660;2023-03-12T14:48:55;34.47;;;29.23;;
13114;SDS011;6623;52.120;8.660;2023-03-12T14:51:21;37.53;;;31.53;;
13114;SDS011;6623;52.120;8.660;2023-03-12T14:53:47;35.60;;;31.23;;
13114;SDS011;6623;52.120;8.660;2023-03-12T14:56:15;39.30;;;31.33;;
13114;SDS011;6623;52.120;8.660;2023-03-12T14:58:49;39.17;;;31.77;;
13114;SDS011;6623;52.120;8.660;2023-03-12T15:01:23;37.53;;;31.10;;
13114;SDS011;6623;52.120;8.660;2023-03-12T15:03:51;37.93;;;31.27;;
13114;SDS011;6623;52.120;8.660;2023-03-12T15:06:31;33.43;;;29.83;;
13114;SDS011;6623;52.120;8.660;2023-03-12T15:09:02;36.03;;;29.60;;
13114;SDS011;6623;52.120;8.660;2023-03-12T15:11:30;36.97;;;30.97;;
13114;SDS011;6623;52.120;8.660;2023-03-12T15:14:01;38.83;;;31.87;;
13114;SDS011;6623;52.120;8.660;2023-03-12T15:16:29;39.70;;;31.60;;
13114;SDS011;6623;52.120;8.660;2023-03-12T15:18:55;40.73;;;32.43;;
13114;SDS011;6623;52.120;8.660;2023-03-12T15:21:23;38.93;;;30.67;;
13114;SDS011;6623;52.120;8.660;2023-03-12T15:23:49;41.73;;;32.00;;
13114;SDS011;6623;52.120;8.660;2023-03-12T15:28:54;40.17;;;31.10;;
13114;SDS011;6623;52.120;8.660;2023-03-12T15:31:39;40.23;;;31.10;;
13114;SDS011;6623;52.120;8.660;2023-03-12T15:34:10;35.97;;;29.23;;
13114;SDS011;6623;52.120;8.660;2023-03-12T15:36:37;34.77;;;28.07;;
13114;SDS011;6623;52.120;8.660;2023-03-12T15:39:23;40.10;;;29.47;;
13114;SDS011;6623;52.120;8.660;2023-03-12T15:42:09;36.57;;;29.17;;
13114;SDS011;6623;52.120;8.660;2023-03-12T15:44:44;33.47;;;28.73;;
13114;SDS011;6623;52.120;8.660;2023-03-12T15:47:13;40.27;;;31.03;;
13114;SDS011;6623;52.120;8.660;2023-03-12T15:49:41;38.03;;;29.87;;
13114;SDS011;6623;52.120;8.660;2023-03-12T15:54:42;41.23;;;31.77;;
13114;SDS011;6623;52.120;8.660;2023-03-12T15:57:23;38.10;;;31.30;;
13114;SDS011;6623;52.120;8.660;2023-03-12T15:59:49;43.20;;;30.60;;
13114;SDS011;6623;52.120;8.660;2023-03-12T16:02:34;43.80;;;32.10;;
13114;SDS011;6623;52.120;8.660;2023-03-12T16:05:01;45.63;;;33.50;;
13114;SDS011;6623;52.120;8.660;2023-03-12T16:07:28;44.93;;;33.77;;
13114;SDS011;6623;52.120;8.660;2023-03-12T16:09:53;45.83;;;33.70;;
13114;SDS011;6623;52.120;8.660;2023-03-12T16:12:19;45.37;;;33.33;;
13114;SDS011;6623;52.120;8.660;2023-03-12T16:14:45;46.90;;;34.43;;
13114;SDS011;6623;52.120;8.660;2023-03-12T16:17:12;46.83;;;34.80;;
13114;SDS011;6623;52.120;8.660;2023-03-12T16:19:41;45.80;;;34.90;;
13114;SDS011;6623;52.120;8.660;2023-03-12T16:22:06;49.93;;;36.63;;
13114;SDS011;6623;52.120;8.660;2023-03-12T16:24:32;50.67;;;36.70;;
13114;SDS011;6623;52.120;8.660;2023-03-12T16:26:57;47.87;;;36.27;;
13114;SDS011;6623;52.120;8.660;2023-03-12T16:29:31;54.97;;;37.20;;
13114;SDS011;6623;52.120;8.660;2023-03-12T16:31:59;51.27;;;36.87;;
13114;SDS011;6623;52.120;8.660;2023-03-12T16:34:25;53.33;;;37.03;;
13114;SDS011;6623;52.120;8.660;2023-03-12T16:36:51;51.73;;;36.67;;
13114;SDS011;6623;52.120;8.660;2023-03-12T16:39:17;57.30;;;37.33;;
13114;SDS011;6623;52.120;8.660;2023-03-12T16:41:43;54.00;;;35.87;;
13114;SDS011;6623;52.120;8.660;2023-03-12T16:44:11;47.77;;;34.37;;
13114;SDS011;6623;52.120;8.660;2023-03-12T16:46:40;53.17;;;36.03;;
13114;SDS011;6623;52.120;8.660;2023-03-12T16:49:09;50.47;;;34.37;;
13114;SDS011;6623;52.120;8.660;2023-03-12T16:51:38;52.53;;;34.87;;